sensor_id;sensor_type;location;lat;lon;timestamp;pressure;altitude;pressure_sealevel;temperature;humidity
68628;BME280;55611;48.602;9.490;2023-03-09T08:21:54;95350;;;14.1;58
68628;BME280;55611;48.602;9.490;2023-03-09T08:24:24;95370;;;14.3;58
68628;BME280;55611;48.602;9.490;2023-03-09T08:26:55;95360;;;14.2;58
68628;BME280;55611;48.602;9.490;2023-03-09T08:29:25;95370;;;14.3;58
68628;BME280;55611;48.602;9.490;2023-03-09T08:31:56;95380;;;14.3;58
68628;BME280;55611;48.602;9.490;2023-03-09T08:34:26;95390;;;14.4;58
68628;BME280;55611;48.602;9.490;2023-03-09T08:36:57;95360;;;14.2;58
68628;BME280;55611;48.602;9.490;2023-03-09T08:39:27;95380;;;14.2;58
68628;BME280;55611;48.602;9.490;2023-03-09T08:41:58;95390;;;14.2;58
68628;BME280;55611;48.602;9.490;2023-03-09T08:44:28;95410;;;14.2;58
68628;BME280;55611;48.602;9.490;2023-03-09T08:46:59;95410;;;14.1;58
68628;BME280;55611;48.602;9.490;2023-03-09T08:49:29;95420;;;14.1;58
68628;BME280;55611;48.602;9.490;2023-03-09T08:52:00;95400;;;14.1;58
68628;BME280;55611;48.602;9.490;2023-03-09T08:54:30;95410;;;14.2;58
68628;BME280;55611;48.602;9.490;2023-03-09T08:59:32;95420;;;14.3;58
68628;BME280;55611;48.602;9.490;2023-03-09T09:02:02;95420;;;14.3;58
68628;BME280;55611;48.602;9.490;2023-03-09T09:04:33;95430;;;14.3;58
68628;BME280;55611;48.602;9.490;2023-03-09T09:07:03;95440;;;14.4;58
68628;BME280;55611;48.602;9.490;2023-03-09T09:09:34;95410;;;14.3;58
68628;BME280;55611;48.602;9.490;2023-03-09T09:12:04;95410;;;14.4;58
68628;BME280;55611;48.602;9.490;2023-03-09T09:14:35;95410;;;14.5;58
68628;BME280;55611;48.602;9.490;2023-03-09T09:17:05;95430;;;14.7;58
68628;BME280;55611;48.602;9.490;2023-03-09T09:19:36;95440;;;14.8;58
68628;BME280;55611;48.602;9.490;2023-03-09T09:22:06;95420;;;14.8;58
68628;BME280;55611;48.602;9.490;2023-03-09T09:24:37;95450;;;14.9;58
68628;BME280;55611;48.602;9.490;2023-03-09T09:27:07;95450;;;14.8;58
68628;BME280;55611;48.602;9.490;2023-03-09T09:29:38;95470;;;14.8;58
68628;BME280;55611;48.602;9.490;2023-03-09T09:34:39;95440;;;14.6;58
68628;BME280;55611;48.602;9.490;2023-03-09T09:37:09;95480;;;14.7;58
68628;BME280;55611;48.602;9.490;2023-03-09T09:39:40;95470;;;14.8;58
68628;BME280;55611;48.602;9.490;2023-03-09T09:42:13;95450;;;14.9;58
68628;BME280;55611;48.602;9.490;2023-03-09T09:44:41;95460;;;15;58
68628;BME280;55611;48.602;9.490;2023-03-09T09:47:13;95460;;;15.3;58
68628;BME280;55611;48.602;9.490;2023-03-09T09:49:43;95450;;;15.2;58
68628;BME280;55611;48.602;9.490;2023-03-09T09:52:45;95500;;;15.3;58
68628;BME280;55611;48.602;9.490;2023-03-09T09:57:16;95460;;;15.5;58
68628;BME280;55611;48.602;9.490;2023-03-09T09:59:55;95480;;;15.3;58
68628;BME280;55611;48.602;9.490;2023-03-09T10:02:19;95470;;;15.3;58
68628;BME280;55611;48.602;9.490;2023-03-09T10:04:46;95480;;;15.3;58
68628;BME280;55611;48.602;9.490;2023-03-09T10:07:17;95500;;;15.1;58
68628;BME280;55611;48.602;9.490;2023-03-09T10:09:50;95500;;;15.2;58
68628;BME280;55611;48.602;9.490;2023-03-09T10:12:16;95490;;;15.1;58
68628;BME280;55611;48.602;9.490;2023-03-09T10:14:49;95490;;;15.1;58
68628;BME280;55611;48.602;9.490;2023-03-09T10:17:20;95490;;;14.9;58
68628;BME280;55611;48.602;9.490;2023-03-09T10:19:48;95500;;;14.8;58
68628;BME280;55611;48.602;9.490;2023-03-09T10:22:21;95500;;;14.9;58
68628;BME280;55611;48.602;9.490;2023-03-09T10:24:50;95490;;;14.8;58
68628;BME280;55611;48.602;9.490;2023-03-09T10:27:24;95490;;;14.9;58
68628;BME280;55611;48.602;9.490;2023-03-09T10:29:54;95490;;;15;58
68628;BME280;55611;48.602;9.490;2023-03-09T10:32:21;95480;;;15.1;58
68628;BME280;55611;48.602;9.490;2023-03-09T10:34:55;95490;;;15.2;58
68628;BME280;55611;48.602;9.490;2023-03-09T10:37:24;95500;;;15.3;58
68628;BME280;55611;48.602;9.490;2023-03-09T10:39:52;95490;;;15.2;58
68628;BME280;55611;48.602;9.490;2023-03-09T10:42:24;95500;;;15.3;58
68628;BME280;55611;48.602;9.490;2023-03-09T10:44:59;95500;;;15.2;58
68628;BME280;55611;48.602;9.490;2023-03-09T10:47:24;95500;;;15.1;58
68628;BME280;55611;48.602;9.490;2023-03-09T10:50:11;95480;;;15.2;58
68628;BME280;55611;48.602;9.490;2023-03-09T10:52:25;95510;;;15.1;58
68628;BME280;55611;48.602;9.490;2023-03-09T10:54:55;95490;;;15.3;58
68628;BME280;55611;48.602;9.490;2023-03-09T10:57:27;95500;;;15.3;58
68628;BME280;55611;48.602;9.490;2023-03-09T10:59:57;95490;;;15.4;58
68628;BME280;55611;48.602;9.490;2023-03-09T11:02:29;95490;;;15.6;57.5
68628;BME280;55611;48.602;9.490;2023-03-09T11:04:57;95460;;;15.7;57.5
68628;BME280;55611;48.602;9.490;2023-03-09T11:07:28;95490;;;15.6;57.5
68628;BME280;55611;48.602;9.490;2023-03-09T11:09:58;95480;;;15.7;57.5
68628;BME280;55611;48.602;9.490;2023-03-09T11:12:34;95520;;;15.7;57.5
68628;BME280;55611;48.602;9.490;2023-03-09T11:15:01;95490;;;15.7;57.5
68628;BME280;55611;48.602;9.490;2023-03-09T11:17:32;95490;;;15.8;57.5
68628;BME280;55611;48.602;9.490;2023-03-09T11:20:12;95490;;;15.7;57.5
68628;BME280;55611;48.602;9.490;2023-03-09T11:22:31;95460;;;15.9;57.5
68628;BME280;55611;48.602;9.490;2023-03-09T11:25:01;95490;;;15.8;57.5
68628;BME280;55611;48.602;9.490;2023-03-09T11:27:32;95480;;;15.6;58
68628;BME280;55611;48.602;9.490;2023-03-09T11:30:05;95490;;;15.8;57.5
68628;BME280;55611;48.602;9.490;2023-03-09T11:32:33;95490;;;15.8;57.5
68628;BME280;55611;48.602;9.490;2023-03-09T11:35:04;95490;;;15.9;57.5
68628;BME280;55611;48.602;9.490;2023-03-09T11:37:37;95500;;;16;57.5
68628;BME280;55611;48.602;9.490;2023-03-09T11:40:05;95480;;;16.1;57.5
68628;BME280;55611;48.602;9.490;2023-03-09T11:42:52;95500;;;16.1;57.5
68628;BME280;55611;48.602;9.490;2023-03-09T11:45:08;95520;;;16.1;57.5
68628;BME280;55611;48.602;9.490;2023-03-09T11:47:39;95490;;;16;58
68628;BME280;55611;48.602;9.490;2023-03-09T11:51:11;95500;;;16.2;58
68628;BME280;55611;48.602;9.490;2023-03-09T11:52:38;95490;;;16.3;58
68628;BME280;55611;48.602;9.490;2023-03-09T11:55:11;95480;;;16.4;57.5
68628;BME280;55611;48.602;9.490;2023-03-09T11:57:38;95490;;;16.3;57.5
68628;BME280;55611;48.602;9.490;2023-03-09T12:00:11;95500;;;16.2;57.5
68628;BME280;55611;48.602;9.490;2023-03-09T12:03:11;95480;;;16.1;57.5
68628;BME280;55611;48.602;9.490;2023-03-09T12:05:11;95500;;;16.1;57.5
68628;BME280;55611;48.602;9.490;2023-03-09T12:07:48;95520;;;16;57.5
68628;BME280;55611;48.602;9.490;2023-03-09T12:10:15;95510;;;16.1;57.5
68628;BME280;55611;48.602;9.490;2023-03-09T12:12:50;95520;;;16.1;57.5
68628;BME280;55611;48.602;9.490;2023-03-09T12:15:14;95510;;;16;57.5
68628;BME280;55611;48.602;9.490;2023-03-09T12:17:51;95500;;;16.2;57.5
68628;BME280;55611;48.602;9.490;2023-03-09T12:20:21;95490;;;16.2;57.5
68628;BME280;55611;48.602;9.490;2023-03-09T12:22:43;95490;;;16.3;57.5
68628;BME280;55611;48.602;9.490;2023-03-09T12:25:16;95510;;;16.5;57.5
68628;BME280;55611;48.602;9.490;2023-03-09T12:28:00;95480;;;16.8;57.5
68628;BME280;55611;48.602;9.490;2023-03-09T12:30:20;95500;;;16.6;57.5
68628;BME280;55611;48.602;9.490;2023-03-09T12:32:46;95490;;;16.8;57
68628;BME280;55611;48.602;9.490;2023-03-09T12:37:51;95500;;;16.8;57
68628;BME280;55611;48.602;9.490;2023-03-09T12:40:20;95490;;;16.8;57
68628;BME280;55611;48.602;9.490;2023-03-09T12:42:48;95460;;;16.8;57
68628;BME280;55611;48.602;9.490;2023-03-09T12:45:23;95480;;;16.7;57
68628;BME280;55611;48.602;9.490;2023-03-09T12:47:49;95480;;;16.7;57
68628;BME280;55611;48.602;9.490;2023-03-09T12:50:22;95510;;;16.6;57
68628;BME280;55611;48.602;9.490;2023-03-09T12:53:22;95500;;;16.4;57
68628;BME280;55611;48.602;9.490;2023-03-09T12:55:21;95500;;;16.2;57
68628;BME280;55611;48.602;9.490;2023-03-09T12:57:52;95510;;;16.3;57
68628;BME280;55611;48.602;9.490;2023-03-09T13:00:24;95530;;;16.4;56.5
68628;BME280;55611;48.602;9.490;2023-03-09T13:02:54;95520;;;16.2;56.5
68628;BME280;55611;48.602;9.490;2023-03-09T13:05:30;95520;;;16.2;56.5
68628;BME280;55611;48.602;9.490;2023-03-09T13:08:26;95540;;;16.2;56.5
68628;BME280;55611;48.602;9.490;2023-03-09T13:10:26;95500;;;16.2;56.5
68628;BME280;55611;48.602;9.490;2023-03-09T13:12:55;95500;;;16.3;56.5
68628;BME280;55611;48.602;9.490;2023-03-09T13:18:03;95520;;;16.3;56.5
68628;BME280;55611;48.602;9.490;2023-03-09T13:20:35;95510;;;16.3;56.5
68628;BME280;55611;48.602;9.490;2023-03-09T13:22:56;95520;;;16.2;56.5
68628;BME280;55611;48.602;9.490;2023-03-09T13:25:28;95520;;;16.2;56.5
68628;BME280;55611;48.602;9.490;2023-03-09T13:28:00;95510;;;16.2;56.5
68628;BME280;55611;48.602;9.490;2023-03-09T13:30:27;95510;;;16.2;56.5
68628;BME280;55611;48.602;9.490;2023-03-09T13:33:00;95520;;;16.2;56.5
68628;BME280;55611;48.602;9.490;2023-03-09T13:35:30;95510;;;16.2;56.5
68628;BME280;55611;48.602;9.490;2023-03-09T13:37:59;95500;;;16.2;56.5
68628;BME280;55611;48.602;9.490;2023-03-09T13:40:31;95510;;;16.3;56.5
68628;BME280;55611;48.602;9.490;2023-03-09T13:43:01;95510;;;16.4;56.5
68628;BME280;55611;48.602;9.490;2023-03-09T13:45:31;95500;;;16.3;56.5
68628;BME280;55611;48.602;9.490;2023-03-09T13:48:02;95500;;;16.2;56.5
68628;BME280;55611;48.602;9.490;2023-03-09T13:50:32;95500;;;16.3;56.5
68628;BME280;55611;48.602;9.490;2023-03-09T13:53:04;95500;;;16.4;56.5
68628;BME280;55611;48.602;9.490;2023-03-09T13:55:32;95500;;;16.4;56.5
68628;BME280;55611;48.602;9.490;2023-03-09T13:58:19;95500;;;16.5;56.5
68628;BME280;55611;48.602;9.490;2023-03-09T14:00:33;95510;;;16.4;56.5
68628;BME280;55611;48.602;9.490;2023-03-09T14:03:04;95480;;;16.6;56.5
68628;BME280;55611;48.602;9.490;2023-03-09T14:05:34;95500;;;16.7;56
68628;BME280;55611;48.602;9.490;2023-03-09T14:08:12;95520;;;16.8;56
68628;BME280;55611;48.602;9.490;2023-03-09T14:10:36;95490;;;16.7;56.5
68628;BME280;55611;48.602;9.490;2023-03-09T14:13:11;95480;;;16.7;56.5
68628;BME280;55611;48.602;9.490;2023-03-09T14:15:36;95480;;;16.9;56
68628;BME280;55611;48.602;9.490;2023-03-09T14:18:15;95480;;;17;56
68628;BME280;55611;48.602;9.490;2023-03-09T14:20:38;95470;;;16.9;56
68628;BME280;55611;48.602;9.490;2023-03-09T14:23:16;95480;;;17;56
68628;BME280;55611;48.602;9.490;2023-03-09T14:25:39;95490;;;16.9;56
68628;BME280;55611;48.602;9.490;2023-03-09T14:28:25;95490;;;17;56
68628;BME280;55611;48.602;9.490;2023-03-09T14:30:40;95480;;;16.8;56
68628;BME280;55611;48.602;9.490;2023-03-09T14:33:27;95490;;;16.9;56
68628;BME280;55611;48.602;9.490;2023-03-09T14:35:41;95500;;;16.9;56
68628;BME280;55611;48.602;9.490;2023-03-09T14:38:16;95470;;;16.9;55.5
68628;BME280;55611;48.602;9.490;2023-03-09T14:40:42;95490;;;16.7;56
68628;BME280;55611;48.602;9.490;2023-03-09T14:43:43;95470;;;16.6;56
68628;BME280;55611;48.602;9.490;2023-03-09T14:45:43;95480;;;16.5;56
68628;BME280;55611;48.602;9.490;2023-03-09T14:48:13;95480;;;16.7;56
68628;BME280;55611;48.602;9.490;2023-03-09T14:50:44;95510;;;16.8;56
68628;BME280;55611;48.602;9.490;2023-03-09T14:53:15;95480;;;16.7;56
68628;BME280;55611;48.602;9.490;2023-03-09T14:55:45;95470;;;16.7;56
68628;BME280;55611;48.602;9.490;2023-03-09T14:58:15;95470;;;16.9;56
68628;BME280;55611;48.602;9.490;2023-03-09T15:00:46;95470;;;16.9;55.5
68628;BME280;55611;48.602;9.490;2023-03-09T15:03:16;95470;;;16.8;55.5
68628;BME280;55611;48.602;9.490;2023-03-09T15:05:47;95490;;;16.9;55.5
68628;BME280;55611;48.602;9.490;2023-03-09T15:08:17;95480;;;16.9;55.5
68628;BME280;55611;48.602;9.490;2023-03-09T15:10:48;95470;;;16.8;55.5
68628;BME280;55611;48.602;9.490;2023-03-09T15:15:49;95480;;;16.8;55.5
68628;BME280;55611;48.602;9.490;2023-03-09T15:18:19;95470;;;16.6;55.5
68628;BME280;55611;48.602;9.490;2023-03-09T15:20:50;95490;;;16.6;55.5
68628;BME280;55611;48.602;9.490;2023-03-09T15:23:20;95470;;;16.6;55.5
68628;BME280;55611;48.602;9.490;2023-03-09T15:25:51;95460;;;16.7;55.5
68628;BME280;55611;48.602;9.490;2023-03-09T15:28:21;95480;;;16.7;55.5
68628;BME280;55611;48.602;9.490;2023-03-09T15:30:52;95460;;;16.8;55.5
68628;BME280;55611;48.602;9.490;2023-03-09T15:33:22;95480;;;16.8;55.5
68628;BME280;55611;48.602;9.490;2023-03-09T15:35:53;95480;;;16.6;55.5
68628;BME280;55611;48.602;9.490;2023-03-09T15:38:23;95450;;;16.1;55.5
68628;BME280;55611;48.602;9.490;2023-03-09T15:40:54;95480;;;15.9;55.5
68628;BME280;55611;48.602;9.490;2023-03-09T15:43:24;95460;;;15.9;55.5
68628;BME280;55611;48.602;9.490;2023-03-09T15:45:55;95480;;;16;55
68628;BME280;55611;48.602;9.490;2023-03-09T15:48:26;95460;;;15.9;55
68628;BME280;55611;48.602;9.490;2023-03-09T15:50:56;95450;;;15.8;55
68628;BME280;55611;48.602;9.490;2023-03-09T15:53:27;95450;;;15.8;55
68628;BME280;55611;48.602;9.490;2023-03-09T15:55:58;95450;;;15.8;55
68628;BME280;55611;48.602;9.490;2023-03-09T15:58:28;95460;;;15.9;55
68628;BME280;55611;48.602;9.490;2023-03-09T16:00:59;95440;;;15.8;55
68628;BME280;55611;48.602;9.490;2023-03-09T16:03:29;95440;;;15.8;55
68628;BME280;55611;48.602;9.490;2023-03-09T16:05:59;95450;;;15.8;55
68628;BME280;55611;48.602;9.490;2023-03-09T16:08:30;95440;;;15.8;55
68628;BME280;55611;48.602;9.490;2023-03-09T16:11:00;95430;;;15.8;55
68628;BME280;55611;48.602;9.490;2023-03-09T16:13:31;95430;;;15.8;55
68628;BME280;55611;48.602;9.490;2023-03-09T16:16:01;95440;;;15.8;55
68628;BME280;55611;48.602;9.490;2023-03-09T16:18:32;95420;;;15.8;55
68628;BME280;55611;48.602;9.490;2023-03-09T16:21:02;95430;;;15.7;55
68628;BME280;55611;48.602;9.490;2023-03-09T16:23:33;95440;;;15.7;55
68628;BME280;55611;48.602;9.490;2023-03-09T16:26:03;95420;;;15.7;54.5
68628;BME280;55611;48.602;9.490;2023-03-09T16:28:34;95420;;;15.6;54.5
68628;BME280;55611;48.602;9.490;2023-03-09T16:31:04;95430;;;15.6;54.5
68628;BME280;55611;48.602;9.490;2023-03-09T16:33:35;95430;;;15.5;54.5
68628;BME280;55611;48.602;9.490;2023-03-09T16:38:36;95430;;;15.5;54.5
68628;BME280;55611;48.602;9.490;2023-03-09T16:41:08;95420;;;15.5;54.5
68628;BME280;55611;48.602;9.490;2023-03-09T16:43:37;95420;;;15.5;54.5
68628;BME280;55611;48.602;9.490;2023-03-09T16:46:08;95420;;;15.4;55
68628;BME280;55611;48.602;9.490;2023-03-09T17:06:22;95400;;;15.2;54.5
68628;BME280;55611;48.602;9.490;2023-03-09T17:08:52;95390;;;15.1;54.5
68628;BME280;55611;48.602;9.490;2023-03-09T17:11:22;95390;;;15.1;54.5
68628;BME280;55611;48.602;9.490;2023-03-09T17:16:12;95390;;;15.2;54
68628;BME280;55611;48.602;9.490;2023-03-09T17:18:43;95390;;;15.3;54
68628;BME280;55611;48.602;9.490;2023-03-09T17:21:13;95380;;;15.2;54
68628;BME280;55611;48.602;9.490;2023-03-09T17:23:44;95380;;;15.2;54
68628;BME280;55611;48.602;9.490;2023-03-09T17:36:15;95380;;;14.9;53.5
68628;BME280;55611;48.602;9.490;2023-03-09T17:38:47;95380;;;14.7;53.5
68628;BME280;55611;48.602;9.490;2023-03-09T17:51:18;95370;;;15;54
68628;BME280;55611;48.602;9.490;2023-03-09T17:58:49;95360;;;15.2;54
68628;BME280;55611;48.602;9.490;2023-03-09T18:01:20;95360;;;15;54
68628;BME280;55611;48.602;9.490;2023-03-09T18:06:21;95350;;;14.8;53.5
68628;BME280;55611;48.602;9.490;2023-03-09T18:16:22;95350;;;14.7;54
68628;BME280;55611;48.602;9.490;2023-03-09T18:18:52;95350;;;14.7;54
68628;BME280;55611;48.602;9.490;2023-03-09T18:21:23;95350;;;14.7;53.5
68628;BME280;55611;48.602;9.490;2023-03-09T18:23:53;95350;;;14.6;53.5
68628;BME280;55611;48.602;9.490;2023-03-09T18:26:25;95340;;;14.5;53.5
68628;BME280;55611;48.602;9.490;2023-03-09T18:28:54;95340;;;14.4;53.5
68628;BME280;55611;48.602;9.490;2023-03-09T18:33:55;95340;;;14.3;53.5
68628;BME280;55611;48.602;9.490;2023-03-09T18:36:25;95340;;;14.3;53.5
68628;BME280;55611;48.602;9.490;2023-03-09T18:38:56;95340;;;14.2;54
68628;BME280;55611;48.602;9.490;2023-03-09T18:41:26;95340;;;14.4;54
68628;BME280;55611;48.602;9.490;2023-03-09T18:43:57;95340;;;14.5;54
68628;BME280;55611;48.602;9.490;2023-03-09T18:46:27;95330;;;14.7;54
68628;BME280;55611;48.602;9.490;2023-03-09T18:51:28;95320;;;14.5;54
68628;BME280;55611;48.602;9.490;2023-03-09T18:56:29;95320;;;14.5;54
68628;BME280;55611;48.602;9.490;2023-03-09T18:58:59;95310;;;14.6;54
68628;BME280;55611;48.602;9.490;2023-03-09T19:01:30;95310;;;14.6;54
68628;BME280;55611;48.602;9.490;2023-03-09T19:04:00;95320;;;14.6;54
68628;BME280;55611;48.602;9.490;2023-03-09T19:06:31;95310;;;14.7;54
68628;BME280;55611;48.602;9.490;2023-03-09T19:09:01;95310;;;14.6;54
68628;BME280;55611;48.602;9.490;2023-03-09T19:14:02;95300;;;14.4;54
68628;BME280;55611;48.602;9.490;2023-03-09T19:21:33;95290;;;14.3;54
68628;BME280;55611;48.602;9.490;2023-03-09T19:24:04;95290;;;14.3;54
68628;BME280;55611;48.602;9.490;2023-03-09T19:31:35;95300;;;14;54
68628;BME280;55611;48.602;9.490;2023-03-09T19:34:05;95290;;;14;54
68628;BME280;55611;48.602;9.490;2023-03-09T19:36:36;95290;;;14.1;54
68628;BME280;55611;48.602;9.490;2023-03-09T19:39:06;95280;;;14.2;54
68628;BME280;55611;48.602;9.490;2023-03-09T19:46:37;95280;;;14.4;54
68628;BME280;55611;48.602;9.490;2023-03-09T19:49:09;95280;;;14.3;54
68628;BME280;55611;48.602;9.490;2023-03-09T19:51:39;95270;;;14.4;54
68628;BME280;55611;48.602;9.490;2023-03-09T19:59:11;95260;;;14.7;54
68628;BME280;55611;48.602;9.490;2023-03-09T20:01:42;95260;;;14.8;54
68628;BME280;55611;48.602;9.490;2023-03-09T20:04:12;95260;;;14.9;54
68628;BME280;55611;48.602;9.490;2023-03-09T20:06:42;95260;;;14.9;54
68628;BME280;55611;48.602;9.490;2023-03-09T20:14:12;95250;;;14.8;54
68628;BME280;55611;48.602;9.490;2023-03-09T20:16:43;95250;;;14.8;54
68628;BME280;55611;48.602;9.490;2023-03-09T20:19:14;95240;;;14.9;53.5
68628;BME280;55611;48.602;9.490;2023-03-09T20:29:15;95230;;;14.7;53.5
68628;BME280;55611;48.602;9.490;2023-03-09T20:39:16;95230;;;14.7;53.5
68628;BME280;55611;48.602;9.490;2023-03-09T20:41:47;95220;;;14.6;53.5
68628;BME280;55611;48.602;9.490;2023-03-09T20:44:17;95240;;;14.6;53.5
68628;BME280;55611;48.602;9.490;2023-03-09T20:49:18;95230;;;14.6;53.5
68628;BME280;55611;48.602;9.490;2023-03-09T20:51:49;95230;;;14.7;53.5
68628;BME280;55611;48.602;9.490;2023-03-09T20:56:49;95240;;;14.6;53.5
68628;BME280;55611;48.602;9.490;2023-03-09T20:59:20;95220;;;14.6;53.5
68628;BME280;55611;48.602;9.490;2023-03-09T21:01:50;95200;;;14.8;53.5
68628;BME280;55611;48.602;9.490;2023-03-09T21:04:21;95210;;;14.9;53.5
68628;BME280;55611;48.602;9.490;2023-03-09T21:09:22;95200;;;14.8;53.5
68628;BME280;55611;48.602;9.490;2023-03-09T21:11:52;95190;;;14.8;53.5
68628;BME280;55611;48.602;9.490;2023-03-09T21:36:55;95170;;;14.9;53
68628;BME280;55611;48.602;9.490;2023-03-09T21:41:56;95160;;;14.9;53
68628;BME280;55611;48.602;9.490;2023-03-09T21:46:57;95160;;;14.8;53
68628;BME280;55611;48.602;9.490;2023-03-09T21:51:58;95150;;;14.7;53
68628;BME280;55611;48.602;9.490;2023-03-09T21:54:29;95150;;;14.7;53
68628;BME280;55611;48.602;9.490;2023-03-09T21:56:59;95150;;;14.7;53
68628;BME280;55611;48.602;9.490;2023-03-09T22:07:01;95150;;;14.5;53
68628;BME280;55611;48.602;9.490;2023-03-09T22:09:31;95140;;;14.4;53
68628;BME280;55611;48.602;9.490;2023-03-09T22:12:02;95140;;;14.3;53
68628;BME280;55611;48.602;9.490;2023-03-09T22:14:32;95140;;;14.3;53
68628;BME280;55611;48.602;9.490;2023-03-09T22:17:02;95130;;;14.2;53
68628;BME280;55611;48.602;9.490;2023-03-09T22:22:03;95140;;;14.1;53
68628;BME280;55611;48.602;9.490;2023-03-09T22:32:05;95130;;;14.2;53
68628;BME280;55611;48.602;9.490;2023-03-09T22:34:35;95120;;;14.2;53
68628;BME280;55611;48.602;9.490;2023-03-09T22:44:37;95120;;;14.1;53
68628;BME280;55611;48.602;9.490;2023-03-09T22:47:07;95120;;;14;53
68628;BME280;55611;48.602;9.490;2023-03-09T22:49:38;95120;;;14.1;53
68628;BME280;55611;48.602;9.490;2023-03-09T22:52:08;95110;;;14.1;53
68628;BME280;55611;48.602;9.490;2023-03-09T22:59:39;95100;;;14.1;53
68628;BME280;55611;48.602;9.490;2023-03-09T23:02:10;95090;;;14.1;53
68628;BME280;55611;48.602;9.490;2023-03-09T23:04:40;95080;;;14.1;53
68628;BME280;55611;48.602;9.490;2023-03-09T23:14:42;95080;;;14.3;53
68628;BME280;55611;48.602;9.490;2023-03-09T23:22:13;95070;;;14.3;53
68628;BME280;55611;48.602;9.490;2023-03-09T23:24:43;95070;;;14.2;53
68628;BME280;55611;48.602;9.490;2023-03-09T23:27:14;95070;;;14.1;53
68628;BME280;55611;48.602;9.490;2023-03-09T23:34:45;95050;;;14;53
68628;BME280;55611;48.602;9.490;2023-03-09T23:37:16;95060;;;14;53
68628;BME280;55611;48.602;9.490;2023-03-09T23:39:46;95050;;;14.2;53
68628;BME280;55611;48.602;9.490;2023-03-09T23:42:17;95050;;;14.2;53
68628;BME280;55611;48.602;9.490;2023-03-09T23:44:47;95040;;;14.2;53
68628;BME280;55611;48.602;9.490;2023-03-09T23:47:18;95050;;;14.1;52.5
68628;BME280;55611;48.602;9.490;2023-03-09T23:57:19;95020;;;14.1;53
